createdAt,value
2022-10-23T00:00:07.931Z,101135.78
2022-10-23T00:02:42.199Z,101126.06
2022-10-23T00:05:16.144Z,101123.09
2022-10-23T00:07:53.234Z,101126.06
2022-10-23T00:10:28.830Z,101124.84
2022-10-23T00:13:03.856Z,101125.56
2022-10-23T00:15:38.494Z,101128.91
2022-10-23T00:18:12.175Z,101134.66
2022-10-23T00:20:45.904Z,101136.84
2022-10-23T00:23:19.435Z,101135.69
2022-10-23T00:25:53.375Z,101136.41
2022-10-23T00:28:28.337Z,101132.91
2022-10-23T00:31:03.266Z,101139.75
2022-10-23T00:33:37.449Z,101135.50
2022-10-23T00:36:14.122Z,101145.16
2022-10-23T00:38:47.985Z,101147.94
2022-10-23T00:41:23.889Z,101139.91
2022-10-23T00:44:06.640Z,101138.63
2022-10-23T00:46:40.835Z,101141.00
2022-10-23T00:49:15.734Z,101138.28
2022-10-23T00:51:53.790Z,101130.09
2022-10-23T00:54:30.527Z,101133.19
2022-10-23T00:57:08.221Z,101134.59
2022-10-23T00:59:43.105Z,101138.72
2022-10-23T01:02:17.195Z,101141.97
2022-10-23T01:04:50.850Z,101139.19
2022-10-23T01:07:30.413Z,101142.50
2022-10-23T01:10:10.176Z,101133.69
2022-10-23T01:12:51.506Z,101142.50
2022-10-23T01:15:32.364Z,101134.88
2022-10-23T01:18:12.847Z,101141.34
2022-10-23T01:20:51.659Z,101129.19
2022-10-23T01:23:47.626Z,101125.41
2022-10-23T01:26:33.268Z,101131.19
2022-10-23T01:29:16.778Z,101129.19
2022-10-23T01:31:54.967Z,101124.56
2022-10-23T01:34:33.450Z,101122.94
2022-10-23T01:37:13.231Z,101124.97
2022-10-23T01:39:53.483Z,101126.84
2022-10-23T01:42:31.832Z,101128.66
2022-10-23T01:45:12.062Z,101130.47
2022-10-23T01:47:46.151Z,101132.16
2022-10-23T01:50:22.932Z,101126.13
2022-10-23T01:52:56.725Z,101126.13
2022-10-23T01:55:32.556Z,101123.63
2022-10-23T01:58:08.556Z,101123.69
2022-10-23T02:00:46.415Z,101119.38
2022-10-23T02:03:21.463Z,101119.56
2022-10-23T02:05:55.176Z,101110.75
2022-10-23T02:08:28.945Z,101111.47
2022-10-23T02:11:09.191Z,101106.88
2022-10-23T02:13:47.689Z,101113.72
2022-10-23T02:16:30.153Z,101117.13
2022-10-23T02:19:14.039Z,101110.63
2022-10-23T02:21:53.946Z,101111.34
2022-10-23T02:24:34.420Z,101105.06
2022-10-23T02:27:14.064Z,101105.69
2022-10-23T02:29:51.187Z,101108.06
2022-10-23T02:32:29.079Z,101113.19
2022-10-23T02:35:02.940Z,101104.25
2022-10-23T02:37:36.801Z,101105.97
2022-10-23T02:40:12.164Z,101104.88
2022-10-23T02:42:51.962Z,101110.56
2022-10-23T02:45:32.852Z,101109.38
2022-10-23T02:48:15.529Z,101109.56
2022-10-23T02:50:55.419Z,101111.91
2022-10-23T02:53:38.181Z,101104.56
2022-10-23T02:56:18.808Z,101111.31
2022-10-23T02:59:00.764Z,101102.59
2022-10-23T03:01:42.151Z,101104.19
2022-10-23T03:04:20.320Z,101100.50
2022-10-23T03:06:54.020Z,101103.84
2022-10-23T03:09:28.113Z,101105.53
2022-10-23T03:12:01.602Z,101109.84
2022-10-23T03:14:35.348Z,101103.56
2022-10-23T03:17:08.801Z,101099.16
2022-10-23T03:19:43.918Z,101097.34
2022-10-23T03:22:17.666Z,101093.63
2022-10-23T03:24:51.369Z,101097.03
2022-10-23T03:27:24.887Z,101103.88
2022-10-23T03:29:58.712Z,101103.88
2022-10-23T03:32:32.207Z,101104.66
2022-10-23T03:35:08.300Z,101108.88
2022-10-23T03:37:41.969Z,101103.50
2022-10-23T03:40:15.917Z,101098.19
2022-10-23T03:42:49.429Z,101091.16
2022-10-23T03:45:23.112Z,101094.50
2022-10-23T03:47:56.542Z,101091.78
2022-10-23T03:50:31.568Z,101093.41
2022-10-23T03:53:05.092Z,101091.47
2022-10-23T03:55:38.795Z,101103.50
2022-10-23T03:58:12.499Z,101098.00
2022-10-23T04:00:46.264Z,101095.41
2022-10-23T04:03:19.761Z,101092.00
2022-10-23T04:05:54.813Z,101089.19
2022-10-23T04:08:28.406Z,101091.63
2022-10-23T04:11:02.235Z,101094.94
2022-10-23T04:13:35.771Z,101100.84
2022-10-23T04:16:09.508Z,101091.16
2022-10-23T04:18:43.107Z,101089.22
2022-10-23T04:21:18.363Z,101096.03
2022-10-23T04:23:51.823Z,101095.13
2022-10-23T04:26:25.621Z,101092.34
2022-10-23T04:28:59.085Z,101084.34
2022-10-23T04:31:32.763Z,101089.25
2022-10-23T04:36:46.431Z,101078.31
2022-10-23T04:39:20.128Z,101074.00
2022-10-23T04:41:53.749Z,101070.31
2022-10-23T04:44:27.331Z,101065.91
2022-10-23T04:47:01.037Z,101057.91
2022-10-23T04:49:34.636Z,101051.69
2022-10-23T04:52:09.781Z,101056.91
2022-10-23T04:54:43.291Z,101061.03
2022-10-23T04:57:17.006Z,101060.94
2022-10-23T04:59:50.538Z,101059.13
2022-10-23T05:02:24.462Z,101053.72
2022-10-23T05:04:58.024Z,101061.44
2022-10-23T05:07:33.074Z,101062.09
2022-10-23T05:10:07.625Z,101063.72
2022-10-23T05:12:41.436Z,101058.50
2022-10-23T05:15:14.883Z,101061.81
2022-10-23T05:17:53.854Z,101061.00
2022-10-23T05:20:32.044Z,101061.53
2022-10-23T05:23:10.435Z,101053.72
2022-10-23T05:25:43.874Z,101066.81
2022-10-23T05:28:17.567Z,101052.00
2022-10-23T05:30:51.380Z,101041.50
2022-10-23T05:33:25.152Z,101053.72
2022-10-23T05:35:59.763Z,101056.13
2022-10-23T05:38:36.672Z,101052.53
2022-10-23T05:41:10.352Z,101055.81
2022-10-23T05:43:44.080Z,101055.72
2022-10-23T05:46:17.548Z,101060.78
2022-10-23T05:48:52.239Z,101052.88
2022-10-23T05:51:25.809Z,101045.06
2022-10-23T05:54:00.801Z,101050.16
2022-10-23T05:56:34.727Z,101055.28
2022-10-23T05:59:09.044Z,101056.88
2022-10-23T06:01:42.842Z,101071.59
2022-10-23T06:04:16.584Z,101068.88
2022-10-23T06:06:50.216Z,101078.41
2022-10-23T06:09:25.373Z,101072.19
2022-10-23T06:11:58.924Z,101064.47
2022-10-23T06:14:32.685Z,101066.19
2022-10-23T06:17:06.466Z,101062.88
2022-10-23T06:19:40.300Z,101068.28
2022-10-23T06:22:14.070Z,101071.88
2022-10-23T06:24:49.196Z,101080.81
2022-10-23T06:27:22.796Z,101083.56
2022-10-23T06:29:56.514Z,101078.66
2022-10-23T06:32:32.696Z,101076.25
2022-10-23T06:35:07.420Z,101074.94
2022-10-23T06:37:41.172Z,101069.03
2022-10-23T06:40:16.352Z,101055.63
2022-10-23T06:42:49.810Z,101062.72
2022-10-23T06:45:23.547Z,101067.22
2022-10-23T06:47:57.059Z,101068.03
2022-10-23T06:50:32.037Z,101067.03
2022-10-23T06:53:06.109Z,101064.53
2022-10-23T06:55:41.233Z,101069.31
2022-10-23T06:58:14.903Z,101063.31
2022-10-23T07:00:48.609Z,101054.88
2022-10-23T07:03:22.207Z,101049.09
2022-10-23T07:05:56.844Z,101054.31
2022-10-23T07:08:31.013Z,101055.09
2022-10-23T07:11:08.264Z,101058.00
2022-10-23T07:13:42.580Z,101056.94
2022-10-23T07:16:18.902Z,101051.78
2022-10-23T07:18:59.304Z,101051.31
2022-10-23T07:21:34.885Z,101048.47
2022-10-23T07:24:10.184Z,101063.59
2022-10-23T07:26:45.289Z,101065.03
2022-10-23T07:29:18.808Z,101066.44
2022-10-23T07:31:52.467Z,101068.16
2022-10-23T07:34:25.999Z,101070.44
2022-10-23T07:36:59.921Z,101078.00
2022-10-23T07:39:33.375Z,101075.91
2022-10-23T07:42:10.495Z,101078.44
2022-10-23T07:44:44.382Z,101077.91
2022-10-23T07:47:18.168Z,101081.84
2022-10-23T07:49:52.629Z,101072.78
2022-10-23T07:52:26.506Z,101067.97
2022-10-23T07:55:00.389Z,101073.84
2022-10-23T07:57:35.436Z,101078.78
2022-10-23T08:00:11.071Z,101083.66
2022-10-23T08:02:44.934Z,101080.56
2022-10-23T08:05:21.458Z,101068.41
2022-10-23T08:07:55.360Z,101073.63
2022-10-23T08:10:28.937Z,101066.22
2022-10-23T08:13:04.059Z,101060.97
2022-10-23T08:15:37.992Z,101051.34
2022-10-23T08:18:11.876Z,101052.81
2022-10-23T08:20:47.793Z,101058.66
2022-10-23T08:23:21.691Z,101057.56
2022-10-23T08:26:00.212Z,101053.22
2022-10-23T08:28:35.513Z,101055.44
2022-10-23T08:31:10.669Z,101055.09
2022-10-23T08:33:44.593Z,101057.66
2022-10-23T08:36:21.261Z,101051.78
2022-10-23T08:38:57.020Z,101048.66
2022-10-23T08:41:35.622Z,101055.63
2022-10-23T08:44:20.743Z,101053.94
2022-10-23T08:47:01.953Z,101051.59
2022-10-23T08:49:46.086Z,101049.66
2022-10-23T08:52:30.010Z,101050.22
2022-10-23T08:55:16.455Z,101049.38
2022-10-23T08:57:56.298Z,101047.13
2022-10-23T09:00:32.003Z,101040.31
2022-10-23T09:03:06.595Z,101039.81
2022-10-23T09:06:01.739Z,101036.16
2022-10-23T09:08:45.259Z,101036.84
2022-10-23T09:11:28.863Z,101029.13
2022-10-23T09:14:27.930Z,101031.00
2022-10-23T09:17:18.660Z,101034.91
2022-10-23T09:20:02.967Z,101024.50
2022-10-23T09:22:36.722Z,101016.63
2022-10-23T09:25:12.338Z,101022.00
2022-10-23T09:27:50.638Z,101022.59
2022-10-23T09:30:33.053Z,101014.19
2022-10-23T09:33:19.553Z,101023.28
2022-10-23T09:35:56.479Z,101022.13
2022-10-23T09:38:35.093Z,101018.53
2022-10-23T09:41:15.139Z,101015.91
2022-10-23T09:44:00.348Z,101029.81
2022-10-23T09:46:41.161Z,101024.81
2022-10-23T09:49:21.987Z,101022.59
2022-10-23T09:52:01.812Z,101026.03
2022-10-23T09:54:39.040Z,101026.63
2022-10-23T09:57:23.868Z,101028.41
2022-10-23T10:00:00.082Z,101027.84
2022-10-23T10:02:35.800Z,101028.47
2022-10-23T10:05:24.099Z,101021.00
2022-10-23T10:08:06.722Z,101025.78
2022-10-23T10:10:46.134Z,101024.13
2022-10-23T10:13:37.535Z,101018.94
2022-10-23T10:16:15.325Z,101011.13
2022-10-23T10:18:56.413Z,101014.06
2022-10-23T10:21:37.978Z,101001.59
2022-10-23T10:24:18.312Z,101004.34
2022-10-23T10:26:59.298Z,101002.41
2022-10-23T10:29:51.391Z,100994.47
2022-10-23T10:32:36.718Z,100993.31
2022-10-23T10:35:26.565Z,100990.81
2022-10-23T10:38:32.378Z,100988.56
2022-10-23T10:41:26.204Z,100983.94
2022-10-23T10:44:16.992Z,100969.59
2022-10-23T10:46:57.632Z,100959.72
2022-10-23T10:49:37.511Z,100956.38
2022-10-23T10:52:18.071Z,100956.63
2022-10-23T10:55:03.545Z,100947.72
2022-10-23T10:57:41.172Z,100951.47
2022-10-23T11:00:17.945Z,100959.78
2022-10-23T11:02:56.272Z,100968.00
2022-10-23T11:05:33.317Z,100948.75
2022-10-23T11:08:12.003Z,100946.34
2022-10-23T11:10:51.322Z,100943.06
2022-10-23T11:13:28.434Z,100937.38
2022-10-23T11:16:06.781Z,100924.97
2022-10-23T11:18:43.779Z,100931.34
2022-10-23T11:21:27.747Z,100919.88
2022-10-23T11:24:53.451Z,100918.50
2022-10-23T11:28:03.312Z,100904.72
2022-10-23T11:30:47.627Z,100908.44
2022-10-23T11:34:10.043Z,100904.25
2022-10-23T11:36:46.953Z,100898.44
2022-10-23T11:39:23.563Z,100898.22
2022-10-23T11:41:58.991Z,100894.94
2022-10-23T11:44:46.185Z,100890.84
2022-10-23T11:47:41.608Z,100886.81
2022-10-23T11:50:24.724Z,100882.19
2022-10-23T11:53:14.995Z,100872.50
2022-10-23T11:56:01.410Z,100872.84
2022-10-23T11:58:44.530Z,100876.16
2022-10-23T12:01:31.438Z,100854.84
2022-10-23T12:04:17.620Z,100850.13
2022-10-23T12:06:53.955Z,100837.72
2022-10-23T12:09:42.354Z,100848.25
2022-10-23T12:12:28.163Z,100843.88
2022-10-23T12:15:21.203Z,100844.78
2022-10-23T12:18:08.775Z,100835.22
2022-10-23T12:20:49.402Z,100838.00
2022-10-23T12:23:48.073Z,100829.63
2022-10-23T12:26:43.456Z,100832.59
2022-10-23T12:29:27.716Z,100820.34
2022-10-23T12:32:14.944Z,100815.63
2022-10-23T12:35:14.285Z,100804.63
2022-10-23T12:38:10.725Z,100795.94
2022-10-23T12:40:46.191Z,100793.16
2022-10-23T12:43:26.967Z,100777.25
2022-10-23T12:46:05.945Z,100781.22
2022-10-23T12:48:49.116Z,100780.41
2022-10-23T12:51:27.422Z,100768.09
2022-10-23T12:54:01.436Z,100766.47
2022-10-23T12:56:38.933Z,100754.41
2022-10-23T12:59:18.472Z,100746.47
2022-10-23T13:01:53.084Z,100738.94
2022-10-23T13:04:30.495Z,100729.50
2022-10-23T13:07:05.714Z,100728.22
2022-10-23T13:09:42.078Z,100729.34
2022-10-23T13:12:22.384Z,100731.13
2022-10-23T13:14:59.041Z,100716.78
2022-10-23T13:17:38.853Z,100708.91
2022-10-23T13:20:22.128Z,100704.41
2022-10-23T13:23:02.194Z,100705.19
2022-10-23T13:25:38.443Z,100691.09
2022-10-23T13:28:24.900Z,100683.94
2022-10-23T13:31:24.071Z,100682.00
2022-10-23T13:34:17.579Z,100681.81
2022-10-23T13:37:00.592Z,100679.34
2022-10-23T13:39:35.773Z,100678.34
2022-10-23T13:42:15.223Z,100674.81
2022-10-23T13:44:49.282Z,100665.13
2022-10-23T13:47:23.304Z,100656.28
2022-10-23T13:49:57.027Z,100649.66
2022-10-23T13:52:30.650Z,100644.41
2022-10-23T13:55:19.346Z,100635.69
2022-10-23T13:57:52.923Z,100636.53
2022-10-23T14:00:26.591Z,100635.59
2022-10-23T14:03:00.224Z,100635.44
2022-10-23T14:05:34.119Z,100624.94
2022-10-23T14:08:07.874Z,100629.31
2022-10-23T14:10:43.029Z,100637.63
2022-10-23T14:13:17.088Z,100651.69
2022-10-23T14:15:54.383Z,100640.06
2022-10-23T14:18:27.945Z,100638.06
2022-10-23T14:21:02.143Z,100631.75
2022-10-23T14:23:36.209Z,100629.72
2022-10-23T14:26:13.291Z,100620.84
2022-10-23T14:28:46.828Z,100623.44
2022-10-23T14:31:20.923Z,100623.53
2022-10-23T14:33:56.893Z,100618.13
2022-10-23T14:36:38.685Z,100618.78
2022-10-23T14:39:24.220Z,100616.72
2022-10-23T14:41:59.372Z,100625.28
2022-10-23T14:44:33.887Z,100622.59
2022-10-23T14:47:07.834Z,100614.72
2022-10-23T14:49:42.461Z,100606.72
2022-10-23T14:52:16.256Z,100600.53
2022-10-23T14:54:51.557Z,100603.03
2022-10-23T14:57:26.751Z,100602.84
2022-10-23T15:00:00.245Z,100587.25
2022-10-23T15:02:34.181Z,100580.84
2022-10-23T15:05:08.299Z,100602.53
2022-10-23T15:07:42.169Z,100595.44
2022-10-23T15:12:56.020Z,100586.47
2022-10-23T15:15:29.735Z,100601.16
2022-10-23T15:18:03.451Z,100600.91
2022-10-23T15:20:37.132Z,100589.56
2022-10-23T15:23:10.928Z,100572.94
2022-10-23T15:25:44.530Z,100561.34
2022-10-23T15:28:19.780Z,100558.53
2022-10-23T15:30:53.910Z,100551.34
2022-10-23T15:33:28.567Z,100538.91
2022-10-23T15:36:02.165Z,100531.69
2022-10-23T15:38:36.020Z,100533.56
2022-10-23T15:41:17.009Z,100532.44
2022-10-23T15:43:56.043Z,100528.72
2022-10-23T15:46:29.783Z,100531.09
2022-10-23T15:49:03.827Z,100522.03
2022-10-23T15:51:38.167Z,100530.53
2022-10-23T15:54:16.607Z,100523.31
2022-10-23T15:56:52.470Z,100535.44
2022-10-23T15:59:27.915Z,100527.41
2022-10-23T16:02:01.776Z,100534.47
2022-10-23T16:04:36.339Z,100525.81
2022-10-23T16:07:10.059Z,100514.28
2022-10-23T16:09:43.949Z,100488.09
2022-10-23T16:12:18.331Z,100466.41
2022-10-23T16:14:53.494Z,100453.56
2022-10-23T16:17:26.946Z,100436.22
2022-10-23T16:20:00.784Z,100443.97
2022-10-23T16:22:34.899Z,100443.81
2022-10-23T16:25:09.283Z,100452.19
2022-10-23T16:27:43.170Z,100450.22
2022-10-23T16:30:18.774Z,100439.66
2022-10-23T16:32:52.599Z,100430.75
2022-10-23T16:35:26.344Z,100435.31
2022-10-23T16:37:59.929Z,100431.00
2022-10-23T16:40:33.939Z,100440.41
2022-10-23T16:43:07.453Z,100453.47
2022-10-23T16:45:42.633Z,100448.13
2022-10-23T16:48:16.189Z,100456.31
2022-10-23T16:50:49.883Z,100455.72
2022-10-23T16:53:26.688Z,100458.16
2022-10-23T16:56:00.454Z,100458.88
2022-10-23T16:58:34.570Z,100455.31
2022-10-23T17:01:12.058Z,100444.81
2022-10-23T17:03:50.520Z,100438.69
2022-10-23T17:06:26.406Z,100424.63
2022-10-23T17:09:01.416Z,100416.84
2022-10-23T17:11:38.124Z,100426.41
2022-10-23T17:14:16.002Z,100417.53
2022-10-23T17:16:52.905Z,100417.44
2022-10-23T17:19:45.521Z,100410.25
2022-10-23T17:22:19.948Z,100404.03
2022-10-23T17:24:54.221Z,100409.13
2022-10-23T17:27:28.391Z,100403.78
2022-10-23T17:30:01.965Z,100413.47
2022-10-23T17:32:37.662Z,100405.44
2022-10-23T17:35:11.659Z,100408.22
2022-10-23T17:37:45.576Z,100391.50
2022-10-23T17:40:22.748Z,100386.94
2022-10-23T17:42:58.847Z,100383.53
2022-10-23T17:45:35.722Z,100372.19
2022-10-23T17:48:10.886Z,100361.66
2022-10-23T17:50:44.687Z,100361.75
2022-10-23T17:53:18.744Z,100359.03
2022-10-23T17:55:52.521Z,100353.53
2022-10-23T17:58:26.290Z,100337.84
2022-10-23T18:01:05.595Z,100333.56
2022-10-23T18:03:41.395Z,100333.50
2022-10-23T18:06:17.752Z,100341.25
2022-10-23T18:08:51.733Z,100338.66
2022-10-23T18:11:27.378Z,100328.78
2022-10-23T18:14:02.129Z,100330.63
2022-10-23T18:16:40.417Z,100330.63
2022-10-23T18:19:18.014Z,100344.47
2022-10-23T18:21:51.773Z,100352.50
2022-10-23T18:24:26.462Z,100356.84
2022-10-23T18:26:59.902Z,100364.63
2022-10-23T18:29:33.657Z,100358.47
2022-10-23T18:32:07.319Z,100362.94
2022-10-23T18:34:42.483Z,100363.03
2022-10-23T18:37:16.140Z,100354.44
2022-10-23T18:39:49.958Z,100336.19
2022-10-23T18:42:23.520Z,100330.97
2022-10-23T18:44:57.326Z,100342.28
2022-10-23T18:47:31.332Z,100345.56
2022-10-23T18:50:07.539Z,100344.72
2022-10-23T18:52:41.203Z,100362.94
2022-10-23T18:55:15.404Z,100367.25
2022-10-23T18:57:49.136Z,100369.88
2022-10-23T19:00:22.928Z,100366.34
2022-10-23T19:02:56.613Z,100370.97
2022-10-23T19:05:32.114Z,100364.03
2022-10-23T19:08:06.163Z,100341.50
2022-10-23T19:10:41.668Z,100344.84
2022-10-23T19:13:16.950Z,100349.88
2022-10-23T19:15:50.685Z,100350.72
2022-10-23T19:18:24.211Z,100354.91
2022-10-23T19:21:01.435Z,100351.41
2022-10-23T19:23:38.202Z,100348.94
2022-10-23T19:26:14.080Z,100356.75
2022-10-23T19:28:49.185Z,100354.06
2022-10-23T19:31:23.428Z,100355.91
2022-10-23T19:33:57.000Z,100357.63
2022-10-23T19:36:32.889Z,100354.19
2022-10-23T19:39:06.628Z,100348.88
2022-10-23T19:41:40.424Z,100344.47
2022-10-23T19:44:14.554Z,100345.41
2022-10-23T19:46:48.661Z,100351.66
2022-10-23T19:49:23.811Z,100366.56
2022-10-23T19:51:58.995Z,100365.72
2022-10-23T19:54:33.127Z,100382.28
2022-10-23T19:57:07.175Z,100390.22
2022-10-23T19:59:40.891Z,100384.75
2022-10-23T20:02:14.737Z,100374.25
2022-10-23T20:04:48.663Z,100374.31
2022-10-23T20:07:23.780Z,100374.25
2022-10-23T20:09:57.300Z,100367.19
2022-10-23T20:12:31.046Z,100368.72
2022-10-23T20:15:05.066Z,100366.94
2022-10-23T20:17:39.043Z,100365.06
2022-10-23T20:20:12.669Z,100364.31
2022-10-23T20:22:49.978Z,100363.41
2022-10-23T20:25:25.589Z,100355.47
2022-10-23T20:27:59.316Z,100346.66
2022-10-23T20:30:33.211Z,100348.56
2022-10-23T20:33:07.093Z,100344.09
2022-10-23T20:35:41.218Z,100338.91
2022-10-23T20:38:16.383Z,100343.28
2022-10-23T20:40:50.025Z,100335.06
2022-10-23T20:43:23.828Z,100325.31
2022-10-23T20:45:59.387Z,100324.31
2022-10-23T20:48:36.251Z,100306.50
2022-10-23T20:51:12.578Z,100277.69
2022-10-23T20:53:48.236Z,100198.84
2022-10-23T20:56:29.963Z,100186.50
2022-10-23T20:59:05.968Z,100240.53
2022-10-23T21:01:41.565Z,100319.16
2022-10-23T21:04:15.374Z,100274.28
2022-10-23T21:07:08.914Z,100265.13
2022-10-23T21:09:44.888Z,100279.88
2022-10-23T21:12:18.441Z,100270.28
2022-10-23T21:14:53.955Z,100268.72
2022-10-23T21:17:28.434Z,100259.13
2022-10-23T21:20:02.316Z,100265.66
2022-10-23T21:22:36.286Z,100262.44
2022-10-23T21:25:11.804Z,100254.69
2022-10-23T21:27:46.570Z,100250.31
2022-10-23T21:30:20.441Z,100238.22
2022-10-23T21:32:53.964Z,100223.59
2022-10-23T21:35:30.036Z,100225.31
2022-10-23T21:38:03.763Z,100213.94
2022-10-23T21:40:38.941Z,100204.47
2022-10-23T21:43:12.510Z,100178.28
2022-10-23T21:45:46.220Z,100162.63
2022-10-23T21:48:19.638Z,100124.22
2022-10-23T21:50:58.153Z,100133.94
2022-10-23T21:53:32.022Z,100128.59
2022-10-23T21:56:07.762Z,100112.19
2022-10-23T21:58:41.454Z,100109.59
2022-10-23T22:01:15.232Z,100114.69
2022-10-23T22:03:49.878Z,100129.69
2022-10-23T22:06:25.280Z,100127.28
2022-10-23T22:09:01.091Z,100107.22
2022-10-23T22:11:36.432Z,100135.47
2022-10-23T22:14:10.005Z,100141.03
2022-10-23T22:16:43.832Z,100144.72
2022-10-23T22:19:18.781Z,100153.34
2022-10-23T22:21:52.709Z,100163.94
2022-10-23T22:24:26.385Z,100157.03
2022-10-23T22:27:01.530Z,100163.31
2022-10-23T22:29:35.205Z,100165.09
2022-10-23T22:32:09.102Z,100165.00
2022-10-23T22:34:52.232Z,100168.25
2022-10-23T22:37:26.659Z,100168.47
2022-10-23T22:40:01.110Z,100163.22
2022-10-23T22:42:44.594Z,100165.88
2022-10-23T22:45:18.984Z,100172.81
2022-10-23T22:47:52.907Z,100174.28
2022-10-23T22:50:26.459Z,100168.00
2022-10-23T22:53:02.820Z,100163.63
2022-10-23T22:55:36.650Z,100167.91
2022-10-23T22:58:11.979Z,100178.38
2022-10-23T23:00:45.894Z,100190.53
2022-10-23T23:03:19.686Z,100199.34
2022-10-23T23:05:53.323Z,100199.31
2022-10-23T23:08:27.498Z,100208.94
2022-10-23T23:11:01.341Z,100214.94
2022-10-23T23:13:36.617Z,100204.41
2022-10-23T23:16:18.828Z,100233.25
2022-10-23T23:18:52.883Z,100229.69
2022-10-23T23:21:26.862Z,100232.88
2022-10-23T23:24:02.828Z,100222.19
2022-10-23T23:26:36.398Z,100233.41
2022-10-23T23:29:13.590Z,100238.41
2022-10-23T23:31:47.183Z,100243.50
2022-10-23T23:34:21.047Z,100242.50
2022-10-23T23:36:54.825Z,100241.47
2022-10-23T23:39:31.384Z,100250.91
2022-10-23T23:42:05.188Z,100237.72
2022-10-23T23:44:50.202Z,100241.91
2022-10-23T23:47:42.484Z,100250.50
2022-10-23T23:50:16.743Z,100258.28
2022-10-23T23:52:50.295Z,100246.84
2022-10-23T23:55:24.008Z,100248.59
2022-10-23T23:57:57.650Z,100233.75
